sensor_id;sensor_type;location;lat;lon;timestamp;P1;durP1;ratioP1;P2;durP2;ratioP2
64738;SDS011;51175;51.186;0.276;2023-07-31T00:00:08;18.75;;;9.85;;
64738;SDS011;51175;51.186;0.276;2023-07-31T00:00:39;21.42;;;9.88;;
64738;SDS011;51175;51.186;0.276;2023-07-31T00:01:09;19.02;;;10.10;;
64738;SDS011;51175;51.186;0.276;2023-07-31T00:01:39;16.73;;;9.00;;
64738;SDS011;51175;51.186;0.276;2023-07-31T00:02:10;14.85;;;8.55;;
64738;SDS011;51175;51.186;0.276;2023-07-31T00:02:41;18.27;;;9.43;;
64738;SDS011;51175;51.186;0.276;2023-07-31T00:03:11;18.73;;;9.23;;
64738;SDS011;51175;51.186;0.276;2023-07-31T00:03:41;18.63;;;9.70;;
64738;SDS011;51175;51.186;0.276;2023-07-31T00:04:12;17.33;;;8.80;;
64738;SDS011;51175;51.186;0.276;2023-07-31T00:04:42;16.80;;;9.57;;
64738;SDS011;51175;51.186;0.276;2023-07-31T00:05:13;16.55;;;9.30;;
64738;SDS011;51175;51.186;0.276;2023-07-31T00:05:43;18.23;;;9.02;;
64738;SDS011;51175;51.186;0.276;2023-07-31T00:06:13;16.27;;;8.50;;
64738;SDS011;51175;51.186;0.276;2023-07-31T00:06:44;24.83;;;9.63;;
64738;SDS011;51175;51.186;0.276;2023-07-31T00:07:14;19.13;;;9.98;;
64738;SDS011;51175;51.186;0.276;2023-07-31T00:07:45;19.35;;;8.85;;
64738;SDS011;51175;51.186;0.276;2023-07-31T00:08:15;19.65;;;9.38;;
64738;SDS011;51175;51.186;0.276;2023-07-31T00:08:46;19.98;;;8.98;;
64738;SDS011;51175;51.186;0.276;2023-07-31T00:09:16;15.88;;;8.32;;
64738;SDS011;51175;51.186;0.276;2023-07-31T00:09:46;16.70;;;8.35;;
64738;SDS011;51175;51.186;0.276;2023-07-31T00:10:17;16.27;;;8.93;;
64738;SDS011;51175;51.186;0.276;2023-07-31T00:10:50;12.15;;;7.63;;
64738;SDS011;51175;51.186;0.276;2023-07-31T00:11:22;17.50;;;9.10;;
64738;SDS011;51175;51.186;0.276;2023-07-31T00:11:52;15.88;;;8.02;;
64738;SDS011;51175;51.186;0.276;2023-07-31T00:12:22;18.73;;;8.35;;
64738;SDS011;51175;51.186;0.276;2023-07-31T00:12:53;14.38;;;8.00;;
64738;SDS011;51175;51.186;0.276;2023-07-31T00:13:23;15.52;;;8.38;;
64738;SDS011;51175;51.186;0.276;2023-07-31T00:13:54;15.88;;;8.50;;
64738;SDS011;51175;51.186;0.276;2023-07-31T00:14:24;15.40;;;8.82;;
64738;SDS011;51175;51.186;0.276;2023-07-31T00:14:55;16.33;;;7.82;;
64738;SDS011;51175;51.186;0.276;2023-07-31T00:15:25;12.18;;;6.95;;
64738;SDS011;51175;51.186;0.276;2023-07-31T00:15:56;13.77;;;8.70;;
64738;SDS011;51175;51.186;0.276;2023-07-31T00:16:26;15.65;;;8.65;;
64738;SDS011;51175;51.186;0.276;2023-07-31T00:16:57;18.33;;;8.57;;
64738;SDS011;51175;51.186;0.276;2023-07-31T00:17:27;15.15;;;8.32;;
64738;SDS011;51175;51.186;0.276;2023-07-31T00:17:58;17.90;;;8.18;;
64738;SDS011;51175;51.186;0.276;2023-07-31T00:18:28;15.52;;;7.25;;
64738;SDS011;51175;51.186;0.276;2023-07-31T00:18:58;14.93;;;8.75;;
64738;SDS011;51175;51.186;0.276;2023-07-31T00:19:29;15.93;;;9.13;;
64738;SDS011;51175;51.186;0.276;2023-07-31T00:19:59;16.83;;;8.02;;
64738;SDS011;51175;51.186;0.276;2023-07-31T00:20:30;14.88;;;7.53;;
64738;SDS011;51175;51.186;0.276;2023-07-31T00:21:00;14.10;;;7.82;;
64738;SDS011;51175;51.186;0.276;2023-07-31T00:21:31;12.88;;;7.90;;
64738;SDS011;51175;51.186;0.276;2023-07-31T00:22:01;16.48;;;7.80;;
64738;SDS011;51175;51.186;0.276;2023-07-31T00:22:31;12.43;;;7.28;;
64738;SDS011;51175;51.186;0.276;2023-07-31T00:23:02;13.85;;;7.82;;
64738;SDS011;51175;51.186;0.276;2023-07-31T00:23:32;14.38;;;7.47;;
64738;SDS011;51175;51.186;0.276;2023-07-31T00:24:02;13.55;;;7.47;;
64738;SDS011;51175;51.186;0.276;2023-07-31T00:24:33;12.80;;;7.07;;
64738;SDS011;51175;51.186;0.276;2023-07-31T00:25:03;14.90;;;6.95;;
64738;SDS011;51175;51.186;0.276;2023-07-31T00:25:36;13.57;;;7.93;;
64738;SDS011;51175;51.186;0.276;2023-07-31T00:26:06;10.75;;;6.75;;
64738;SDS011;51175;51.186;0.276;2023-07-31T00:26:36;13.50;;;7.03;;
64738;SDS011;51175;51.186;0.276;2023-07-31T00:27:09;11.82;;;6.97;;
64738;SDS011;51175;51.186;0.276;2023-07-31T00:27:39;14.18;;;6.53;;
64738;SDS011;51175;51.186;0.276;2023-07-31T00:28:16;15.48;;;7.28;;
64738;SDS011;51175;51.186;0.276;2023-07-31T00:28:47;13.13;;;7.13;;
64738;SDS011;51175;51.186;0.276;2023-07-31T00:29:17;16.10;;;8.32;;
64738;SDS011;51175;51.186;0.276;2023-07-31T00:29:47;12.00;;;6.65;;
64738;SDS011;51175;51.186;0.276;2023-07-31T00:30:18;11.25;;;7.38;;
64738;SDS011;51175;51.186;0.276;2023-07-31T00:30:48;13.88;;;6.40;;
64738;SDS011;51175;51.186;0.276;2023-07-31T00:31:18;12.20;;;6.70;;
64738;SDS011;51175;51.186;0.276;2023-07-31T00:31:49;9.98;;;5.88;;
64738;SDS011;51175;51.186;0.276;2023-07-31T00:32:19;10.93;;;6.72;;
64738;SDS011;51175;51.186;0.276;2023-07-31T00:32:50;11.90;;;6.70;;
64738;SDS011;51175;51.186;0.276;2023-07-31T00:33:21;13.25;;;6.55;;
64738;SDS011;51175;51.186;0.276;2023-07-31T00:33:51;10.52;;;6.45;;
64738;SDS011;51175;51.186;0.276;2023-07-31T00:34:21;13.98;;;7.25;;
64738;SDS011;51175;51.186;0.276;2023-07-31T00:34:52;10.63;;;6.28;;
64738;SDS011;51175;51.186;0.276;2023-07-31T00:35:22;11.77;;;6.22;;
64738;SDS011;51175;51.186;0.276;2023-07-31T00:35:52;12.30;;;6.13;;
64738;SDS011;51175;51.186;0.276;2023-07-31T00:36:23;16.90;;;7.05;;
64738;SDS011;51175;51.186;0.276;2023-07-31T00:36:53;10.55;;;6.03;;
64738;SDS011;51175;51.186;0.276;2023-07-31T00:37:24;9.80;;;6.15;;
64738;SDS011;51175;51.186;0.276;2023-07-31T00:37:54;13.13;;;6.65;;
64738;SDS011;51175;51.186;0.276;2023-07-31T00:38:26;10.93;;;5.88;;
64738;SDS011;51175;51.186;0.276;2023-07-31T00:38:56;11.93;;;6.32;;
64738;SDS011;51175;51.186;0.276;2023-07-31T00:39:26;13.55;;;6.78;;
64738;SDS011;51175;51.186;0.276;2023-07-31T00:40:00;12.20;;;6.65;;
64738;SDS011;51175;51.186;0.276;2023-07-31T00:40:34;11.07;;;5.75;;
64738;SDS011;51175;51.186;0.276;2023-07-31T00:41:06;11.32;;;5.65;;
64738;SDS011;51175;51.186;0.276;2023-07-31T00:41:36;9.38;;;5.03;;
64738;SDS011;51175;51.186;0.276;2023-07-31T00:42:09;10.90;;;5.88;;
64738;SDS011;51175;51.186;0.276;2023-07-31T00:42:40;10.75;;;5.63;;
64738;SDS011;51175;51.186;0.276;2023-07-31T00:43:10;11.70;;;6.47;;
64738;SDS011;51175;51.186;0.276;2023-07-31T00:43:40;9.32;;;5.40;;
64738;SDS011;51175;51.186;0.276;2023-07-31T00:44:11;8.48;;;4.93;;
64738;SDS011;51175;51.186;0.276;2023-07-31T00:44:41;9.65;;;5.22;;
64738;SDS011;51175;51.186;0.276;2023-07-31T00:45:11;10.60;;;4.90;;
64738;SDS011;51175;51.186;0.276;2023-07-31T00:45:42;9.38;;;4.72;;
64738;SDS011;51175;51.186;0.276;2023-07-31T00:46:12;10.63;;;5.53;;
64738;SDS011;51175;51.186;0.276;2023-07-31T00:46:43;9.82;;;4.72;;
64738;SDS011;51175;51.186;0.276;2023-07-31T00:47:14;16.83;;;5.82;;
64738;SDS011;51175;51.186;0.276;2023-07-31T00:47:44;8.63;;;4.97;;
64738;SDS011;51175;51.186;0.276;2023-07-31T00:48:15;10.45;;;5.90;;
64738;SDS011;51175;51.186;0.276;2023-07-31T00:48:45;8.70;;;5.03;;
64738;SDS011;51175;51.186;0.276;2023-07-31T00:49:16;9.25;;;5.43;;
64738;SDS011;51175;51.186;0.276;2023-07-31T00:49:46;7.88;;;5.10;;
64738;SDS011;51175;51.186;0.276;2023-07-31T00:50:18;8.65;;;4.28;;
64738;SDS011;51175;51.186;0.276;2023-07-31T00:50:51;8.98;;;4.75;;
64738;SDS011;51175;51.186;0.276;2023-07-31T00:51:21;9.55;;;5.13;;
64738;SDS011;51175;51.186;0.276;2023-07-31T00:51:52;10.70;;;4.80;;
64738;SDS011;51175;51.186;0.276;2023-07-31T00:52:23;9.00;;;4.57;;
64738;SDS011;51175;51.186;0.276;2023-07-31T00:52:54;9.40;;;4.88;;
64738;SDS011;51175;51.186;0.276;2023-07-31T00:53:24;7.75;;;3.85;;
64738;SDS011;51175;51.186;0.276;2023-07-31T00:53:55;8.30;;;4.90;;
64738;SDS011;51175;51.186;0.276;2023-07-31T00:54:26;8.63;;;4.68;;
64738;SDS011;51175;51.186;0.276;2023-07-31T00:54:58;8.27;;;4.68;;
64738;SDS011;51175;51.186;0.276;2023-07-31T00:55:30;8.18;;;4.38;;
64738;SDS011;51175;51.186;0.276;2023-07-31T00:56:00;8.05;;;4.05;;
64738;SDS011;51175;51.186;0.276;2023-07-31T00:56:32;7.32;;;3.92;;
64738;SDS011;51175;51.186;0.276;2023-07-31T00:57:03;8.65;;;4.05;;
64738;SDS011;51175;51.186;0.276;2023-07-31T00:57:38;8.68;;;3.70;;
64738;SDS011;51175;51.186;0.276;2023-07-31T00:58:11;7.95;;;3.85;;
64738;SDS011;51175;51.186;0.276;2023-07-31T00:58:41;7.22;;;4.03;;
64738;SDS011;51175;51.186;0.276;2023-07-31T00:59:15;7.10;;;3.75;;
64738;SDS011;51175;51.186;0.276;2023-07-31T00:59:45;10.30;;;4.82;;
64738;SDS011;51175;51.186;0.276;2023-07-31T01:00:16;6.13;;;3.72;;
64738;SDS011;51175;51.186;0.276;2023-07-31T01:00:47;7.80;;;4.63;;
64738;SDS011;51175;51.186;0.276;2023-07-31T01:01:17;8.57;;;4.07;;
64738;SDS011;51175;51.186;0.276;2023-07-31T01:01:47;5.75;;;3.53;;
64738;SDS011;51175;51.186;0.276;2023-07-31T01:02:18;7.93;;;3.85;;
64738;SDS011;51175;51.186;0.276;2023-07-31T01:02:49;7.90;;;3.80;;
64738;SDS011;51175;51.186;0.276;2023-07-31T01:03:20;6.97;;;3.63;;
64738;SDS011;51175;51.186;0.276;2023-07-31T01:03:51;5.28;;;3.42;;
64738;SDS011;51175;51.186;0.276;2023-07-31T01:04:25;8.00;;;4.28;;
64738;SDS011;51175;51.186;0.276;2023-07-31T01:04:57;7.07;;;3.88;;
64738;SDS011;51175;51.186;0.276;2023-07-31T01:05:39;8.10;;;4.32;;
64738;SDS011;51175;51.186;0.276;2023-07-31T01:06:19;6.97;;;4.45;;
64738;SDS011;51175;51.186;0.276;2023-07-31T01:07:36;5.28;;;3.15;;
64738;SDS011;51175;51.186;0.276;2023-07-31T01:08:15;5.43;;;3.20;;
64738;SDS011;51175;51.186;0.276;2023-07-31T01:09:04;7.25;;;3.20;;
64738;SDS011;51175;51.186;0.276;2023-07-31T01:09:52;14.95;;;4.43;;
64738;SDS011;51175;51.186;0.276;2023-07-31T01:10:49;5.65;;;3.20;;
64738;SDS011;51175;51.186;0.276;2023-07-31T01:11:28;7.43;;;3.50;;
64738;SDS011;51175;51.186;0.276;2023-07-31T01:12:01;6.32;;;3.72;;
64738;SDS011;51175;51.186;0.276;2023-07-31T01:12:36;6.82;;;3.35;;
64738;SDS011;51175;51.186;0.276;2023-07-31T01:13:08;7.18;;;4.07;;
64738;SDS011;51175;51.186;0.276;2023-07-31T01:13:39;5.82;;;3.50;;
64738;SDS011;51175;51.186;0.276;2023-07-31T01:14:10;9.05;;;3.92;;
64738;SDS011;51175;51.186;0.276;2023-07-31T01:14:40;5.57;;;2.67;;
64738;SDS011;51175;51.186;0.276;2023-07-31T01:15:11;6.63;;;3.60;;
64738;SDS011;51175;51.186;0.276;2023-07-31T01:15:41;8.50;;;3.60;;
64738;SDS011;51175;51.186;0.276;2023-07-31T01:16:12;6.78;;;3.63;;
64738;SDS011;51175;51.186;0.276;2023-07-31T01:16:42;4.72;;;2.90;;
64738;SDS011;51175;51.186;0.276;2023-07-31T01:17:13;7.90;;;4.18;;
64738;SDS011;51175;51.186;0.276;2023-07-31T01:17:43;6.78;;;3.00;;
64738;SDS011;51175;51.186;0.276;2023-07-31T01:18:14;6.15;;;3.53;;
64738;SDS011;51175;51.186;0.276;2023-07-31T01:18:44;8.02;;;2.92;;
64738;SDS011;51175;51.186;0.276;2023-07-31T01:19:15;5.20;;;2.75;;
64738;SDS011;51175;51.186;0.276;2023-07-31T01:19:51;5.22;;;2.70;;
64738;SDS011;51175;51.186;0.276;2023-07-31T01:20:23;3.53;;;2.45;;
64738;SDS011;51175;51.186;0.276;2023-07-31T01:21:45;6.70;;;3.50;;
64738;SDS011;51175;51.186;0.276;2023-07-31T01:22:13;6.75;;;2.85;;
64738;SDS011;51175;51.186;0.276;2023-07-31T01:26:29;4.43;;;2.47;;
64738;SDS011;51175;51.186;0.276;2023-07-31T01:27:05;6.15;;;2.78;;
64738;SDS011;51175;51.186;0.276;2023-07-31T01:27:48;4.47;;;2.50;;
64738;SDS011;51175;51.186;0.276;2023-07-31T01:28:25;4.60;;;2.70;;
64738;SDS011;51175;51.186;0.276;2023-07-31T01:29:07;4.43;;;2.58;;
64738;SDS011;51175;51.186;0.276;2023-07-31T01:30:22;6.85;;;3.20;;
64738;SDS011;51175;51.186;0.276;2023-07-31T01:30:58;5.78;;;2.70;;
64738;SDS011;51175;51.186;0.276;2023-07-31T01:31:30;4.85;;;2.65;;
64738;SDS011;51175;51.186;0.276;2023-07-31T01:32:02;3.95;;;2.15;;
64738;SDS011;51175;51.186;0.276;2023-07-31T01:32:34;4.65;;;2.60;;
64738;SDS011;51175;51.186;0.276;2023-07-31T01:33:08;6.18;;;2.50;;
64738;SDS011;51175;51.186;0.276;2023-07-31T01:33:40;4.03;;;2.38;;
64738;SDS011;51175;51.186;0.276;2023-07-31T01:34:13;5.95;;;2.58;;
64738;SDS011;51175;51.186;0.276;2023-07-31T01:34:46;4.22;;;2.20;;
64738;SDS011;51175;51.186;0.276;2023-07-31T01:35:17;4.53;;;2.28;;
64738;SDS011;51175;51.186;0.276;2023-07-31T01:35:47;4.47;;;2.45;;
64738;SDS011;51175;51.186;0.276;2023-07-31T01:36:19;5.32;;;2.88;;
64738;SDS011;51175;51.186;0.276;2023-07-31T01:36:50;5.15;;;2.13;;
64738;SDS011;51175;51.186;0.276;2023-07-31T01:37:20;5.35;;;2.38;;
64738;SDS011;51175;51.186;0.276;2023-07-31T01:37:52;4.90;;;2.42;;
64738;SDS011;51175;51.186;0.276;2023-07-31T01:38:24;3.50;;;1.92;;
64738;SDS011;51175;51.186;0.276;2023-07-31T01:39:02;4.57;;;2.42;;
64738;SDS011;51175;51.186;0.276;2023-07-31T01:39:33;4.43;;;2.00;;
64738;SDS011;51175;51.186;0.276;2023-07-31T01:40:04;4.35;;;2.13;;
64738;SDS011;51175;51.186;0.276;2023-07-31T01:40:40;3.33;;;1.92;;
64738;SDS011;51175;51.186;0.276;2023-07-31T01:41:11;8.00;;;2.38;;
64738;SDS011;51175;51.186;0.276;2023-07-31T01:41:42;4.32;;;2.40;;
64738;SDS011;51175;51.186;0.276;2023-07-31T01:42:12;5.15;;;2.08;;
64738;SDS011;51175;51.186;0.276;2023-07-31T01:42:42;3.65;;;2.05;;
64738;SDS011;51175;51.186;0.276;2023-07-31T01:43:13;4.50;;;2.35;;
64738;SDS011;51175;51.186;0.276;2023-07-31T01:43:44;2.85;;;1.63;;
64738;SDS011;51175;51.186;0.276;2023-07-31T01:44:15;3.88;;;2.15;;
64738;SDS011;51175;51.186;0.276;2023-07-31T01:44:45;4.70;;;2.50;;
64738;SDS011;51175;51.186;0.276;2023-07-31T01:45:16;4.15;;;2.40;;
64738;SDS011;51175;51.186;0.276;2023-07-31T01:45:46;3.78;;;2.03;;
64738;SDS011;51175;51.186;0.276;2023-07-31T01:46:17;4.53;;;2.15;;
64738;SDS011;51175;51.186;0.276;2023-07-31T01:46:47;4.60;;;2.10;;
64738;SDS011;51175;51.186;0.276;2023-07-31T01:47:17;3.38;;;2.15;;
64738;SDS011;51175;51.186;0.276;2023-07-31T01:47:51;3.60;;;1.92;;
64738;SDS011;51175;51.186;0.276;2023-07-31T01:48:21;5.30;;;2.33;;
64738;SDS011;51175;51.186;0.276;2023-07-31T01:48:54;2.72;;;1.80;;
64738;SDS011;51175;51.186;0.276;2023-07-31T01:49:24;4.63;;;1.95;;
64738;SDS011;51175;51.186;0.276;2023-07-31T01:49:55;3.90;;;1.90;;
64738;SDS011;51175;51.186;0.276;2023-07-31T01:50:25;4.80;;;2.55;;
64738;SDS011;51175;51.186;0.276;2023-07-31T01:50:56;4.28;;;1.83;;
64738;SDS011;51175;51.186;0.276;2023-07-31T01:51:30;3.42;;;2.20;;
64738;SDS011;51175;51.186;0.276;2023-07-31T01:52:04;4.53;;;1.80;;
64738;SDS011;51175;51.186;0.276;2023-07-31T01:52:34;4.05;;;1.70;;
64738;SDS011;51175;51.186;0.276;2023-07-31T01:53:14;4.07;;;2.03;;
64738;SDS011;51175;51.186;0.276;2023-07-31T01:53:45;4.15;;;1.80;;
64738;SDS011;51175;51.186;0.276;2023-07-31T01:54:15;3.90;;;1.95;;
64738;SDS011;51175;51.186;0.276;2023-07-31T01:54:45;4.47;;;2.08;;
64738;SDS011;51175;51.186;0.276;2023-07-31T01:55:16;3.75;;;1.98;;
64738;SDS011;51175;51.186;0.276;2023-07-31T01:55:46;4.10;;;1.50;;
64738;SDS011;51175;51.186;0.276;2023-07-31T01:56:16;3.58;;;1.95;;
64738;SDS011;51175;51.186;0.276;2023-07-31T01:56:47;7.30;;;2.75;;
64738;SDS011;51175;51.186;0.276;2023-07-31T01:57:17;3.20;;;1.67;;
64738;SDS011;51175;51.186;0.276;2023-07-31T01:57:47;5.40;;;2.58;;
64738;SDS011;51175;51.186;0.276;2023-07-31T01:58:18;3.30;;;1.80;;
64738;SDS011;51175;51.186;0.276;2023-07-31T01:58:48;3.88;;;1.80;;
64738;SDS011;51175;51.186;0.276;2023-07-31T01:59:19;2.88;;;1.55;;
64738;SDS011;51175;51.186;0.276;2023-07-31T01:59:49;5.28;;;2.03;;
64738;SDS011;51175;51.186;0.276;2023-07-31T02:00:20;4.03;;;1.70;;
64738;SDS011;51175;51.186;0.276;2023-07-31T02:00:50;3.60;;;1.88;;
64738;SDS011;51175;51.186;0.276;2023-07-31T02:01:20;4.63;;;2.13;;
64738;SDS011;51175;51.186;0.276;2023-07-31T02:01:51;3.35;;;1.63;;
64738;SDS011;51175;51.186;0.276;2023-07-31T02:02:22;3.63;;;2.00;;
64738;SDS011;51175;51.186;0.276;2023-07-31T02:02:53;3.80;;;1.50;;
64738;SDS011;51175;51.186;0.276;2023-07-31T02:03:23;4.55;;;2.15;;
64738;SDS011;51175;51.186;0.276;2023-07-31T02:03:53;4.05;;;1.77;;
64738;SDS011;51175;51.186;0.276;2023-07-31T02:04:24;3.42;;;2.08;;
64738;SDS011;51175;51.186;0.276;2023-07-31T02:04:54;3.45;;;2.05;;
64738;SDS011;51175;51.186;0.276;2023-07-31T02:05:25;3.08;;;1.38;;
64738;SDS011;51175;51.186;0.276;2023-07-31T02:05:55;3.92;;;1.70;;
64738;SDS011;51175;51.186;0.276;2023-07-31T02:06:26;3.92;;;1.55;;
64738;SDS011;51175;51.186;0.276;2023-07-31T02:06:57;3.97;;;1.73;;
64738;SDS011;51175;51.186;0.276;2023-07-31T02:07:27;2.63;;;1.52;;
64738;SDS011;51175;51.186;0.276;2023-07-31T02:07:57;3.00;;;1.52;;
64738;SDS011;51175;51.186;0.276;2023-07-31T02:08:28;3.53;;;1.77;;
64738;SDS011;51175;51.186;0.276;2023-07-31T02:08:58;2.97;;;1.30;;
64738;SDS011;51175;51.186;0.276;2023-07-31T02:09:28;6.97;;;2.22;;
64738;SDS011;51175;51.186;0.276;2023-07-31T02:09:59;3.35;;;1.88;;
64738;SDS011;51175;51.186;0.276;2023-07-31T02:10:29;4.15;;;1.85;;
64738;SDS011;51175;51.186;0.276;2023-07-31T02:10:59;3.03;;;2.00;;
64738;SDS011;51175;51.186;0.276;2023-07-31T02:11:30;7.05;;;2.25;;
64738;SDS011;51175;51.186;0.276;2023-07-31T02:12:00;3.60;;;1.80;;
64738;SDS011;51175;51.186;0.276;2023-07-31T02:12:31;3.10;;;1.42;;
64738;SDS011;51175;51.186;0.276;2023-07-31T02:13:02;2.97;;;1.80;;
64738;SDS011;51175;51.186;0.276;2023-07-31T02:13:33;5.15;;;2.10;;
64738;SDS011;51175;51.186;0.276;2023-07-31T02:14:04;4.35;;;1.65;;
64738;SDS011;51175;51.186;0.276;2023-07-31T02:14:34;3.33;;;1.50;;
64738;SDS011;51175;51.186;0.276;2023-07-31T02:15:05;3.90;;;1.90;;
64738;SDS011;51175;51.186;0.276;2023-07-31T02:15:36;4.07;;;1.50;;
64738;SDS011;51175;51.186;0.276;2023-07-31T02:16:06;4.75;;;1.40;;
64738;SDS011;51175;51.186;0.276;2023-07-31T02:16:37;5.10;;;1.70;;
64738;SDS011;51175;51.186;0.276;2023-07-31T02:17:07;3.53;;;1.80;;
64738;SDS011;51175;51.186;0.276;2023-07-31T02:17:37;3.05;;;1.75;;
64738;SDS011;51175;51.186;0.276;2023-07-31T02:18:08;4.35;;;1.88;;
64738;SDS011;51175;51.186;0.276;2023-07-31T02:18:38;2.40;;;1.67;;
64738;SDS011;51175;51.186;0.276;2023-07-31T02:19:09;2.72;;;1.67;;
64738;SDS011;51175;51.186;0.276;2023-07-31T02:19:39;3.20;;;1.58;;
64738;SDS011;51175;51.186;0.276;2023-07-31T02:20:09;3.83;;;1.73;;
64738;SDS011;51175;51.186;0.276;2023-07-31T02:20:40;2.67;;;1.52;;
64738;SDS011;51175;51.186;0.276;2023-07-31T02:21:10;2.35;;;1.20;;
64738;SDS011;51175;51.186;0.276;2023-07-31T02:21:41;4.07;;;1.92;;
64738;SDS011;51175;51.186;0.276;2023-07-31T02:22:11;5.68;;;1.92;;
64738;SDS011;51175;51.186;0.276;2023-07-31T02:22:41;3.40;;;1.50;;
64738;SDS011;51175;51.186;0.276;2023-07-31T02:23:12;4.05;;;1.70;;
64738;SDS011;51175;51.186;0.276;2023-07-31T02:23:42;2.40;;;1.67;;
64738;SDS011;51175;51.186;0.276;2023-07-31T02:24:12;3.50;;;2.20;;
64738;SDS011;51175;51.186;0.276;2023-07-31T02:24:43;3.00;;;1.55;;
64738;SDS011;51175;51.186;0.276;2023-07-31T02:25:13;4.63;;;1.98;;
64738;SDS011;51175;51.186;0.276;2023-07-31T02:25:44;4.22;;;1.77;;
64738;SDS011;51175;51.186;0.276;2023-07-31T02:26:14;2.35;;;1.30;;
64738;SDS011;51175;51.186;0.276;2023-07-31T02:26:45;4.50;;;1.67;;
64738;SDS011;51175;51.186;0.276;2023-07-31T02:27:15;3.90;;;1.85;;
64738;SDS011;51175;51.186;0.276;2023-07-31T02:27:45;3.20;;;1.48;;
64738;SDS011;51175;51.186;0.276;2023-07-31T02:28:16;3.55;;;1.65;;
64738;SDS011;51175;51.186;0.276;2023-07-31T02:28:47;3.97;;;2.22;;
64738;SDS011;51175;51.186;0.276;2023-07-31T02:29:17;3.35;;;1.45;;
64738;SDS011;51175;51.186;0.276;2023-07-31T02:29:47;3.65;;;1.67;;
64738;SDS011;51175;51.186;0.276;2023-07-31T02:30:18;4.00;;;1.65;;
64738;SDS011;51175;51.186;0.276;2023-07-31T02:30:49;4.13;;;1.77;;
64738;SDS011;51175;51.186;0.276;2023-07-31T02:31:21;4.15;;;1.88;;
64738;SDS011;51175;51.186;0.276;2023-07-31T02:31:51;3.40;;;1.55;;
64738;SDS011;51175;51.186;0.276;2023-07-31T02:32:22;3.20;;;1.27;;
64738;SDS011;51175;51.186;0.276;2023-07-31T02:32:53;3.30;;;1.42;;
64738;SDS011;51175;51.186;0.276;2023-07-31T02:33:23;2.67;;;1.13;;
64738;SDS011;51175;51.186;0.276;2023-07-31T02:33:54;2.17;;;1.65;;
64738;SDS011;51175;51.186;0.276;2023-07-31T02:34:24;3.42;;;1.42;;
64738;SDS011;51175;51.186;0.276;2023-07-31T02:34:54;2.80;;;1.65;;
64738;SDS011;51175;51.186;0.276;2023-07-31T02:35:25;2.70;;;1.27;;
64738;SDS011;51175;51.186;0.276;2023-07-31T02:35:55;2.70;;;1.40;;
64738;SDS011;51175;51.186;0.276;2023-07-31T02:36:25;3.30;;;1.17;;
64738;SDS011;51175;51.186;0.276;2023-07-31T02:36:56;2.45;;;1.70;;
64738;SDS011;51175;51.186;0.276;2023-07-31T02:37:26;5.15;;;1.52;;
64738;SDS011;51175;51.186;0.276;2023-07-31T02:37:58;3.78;;;1.73;;
64738;SDS011;51175;51.186;0.276;2023-07-31T02:38:29;2.90;;;1.20;;
64738;SDS011;51175;51.186;0.276;2023-07-31T02:38:59;2.38;;;1.15;;
64738;SDS011;51175;51.186;0.276;2023-07-31T02:39:29;2.60;;;1.15;;
64738;SDS011;51175;51.186;0.276;2023-07-31T02:40:00;2.75;;;1.30;;
64738;SDS011;51175;51.186;0.276;2023-07-31T02:40:30;2.65;;;1.38;;
64738;SDS011;51175;51.186;0.276;2023-07-31T02:41:00;2.45;;;1.77;;
64738;SDS011;51175;51.186;0.276;2023-07-31T02:41:31;4.18;;;1.65;;
64738;SDS011;51175;51.186;0.276;2023-07-31T02:42:01;3.60;;;1.50;;
64738;SDS011;51175;51.186;0.276;2023-07-31T02:42:32;2.25;;;1.27;;
64738;SDS011;51175;51.186;0.276;2023-07-31T02:43:02;1.92;;;1.20;;
64738;SDS011;51175;51.186;0.276;2023-07-31T02:43:32;3.15;;;1.10;;
64738;SDS011;51175;51.186;0.276;2023-07-31T02:44:03;3.95;;;1.58;;
64738;SDS011;51175;51.186;0.276;2023-07-31T02:44:33;1.90;;;0.85;;
64738;SDS011;51175;51.186;0.276;2023-07-31T02:45:04;4.38;;;1.25;;
64738;SDS011;51175;51.186;0.276;2023-07-31T02:45:35;3.38;;;1.48;;
64738;SDS011;51175;51.186;0.276;2023-07-31T02:46:05;4.22;;;1.83;;
64738;SDS011;51175;51.186;0.276;2023-07-31T02:46:35;4.63;;;1.88;;
64738;SDS011;51175;51.186;0.276;2023-07-31T02:47:06;2.05;;;1.13;;
64738;SDS011;51175;51.186;0.276;2023-07-31T02:47:36;3.17;;;1.30;;
64738;SDS011;51175;51.186;0.276;2023-07-31T02:48:06;2.92;;;1.33;;
64738;SDS011;51175;51.186;0.276;2023-07-31T02:48:37;3.90;;;1.60;;
64738;SDS011;51175;51.186;0.276;2023-07-31T02:49:07;2.60;;;1.35;;
64738;SDS011;51175;51.186;0.276;2023-07-31T02:49:37;5.25;;;1.42;;
64738;SDS011;51175;51.186;0.276;2023-07-31T02:50:08;2.58;;;1.67;;
64738;SDS011;51175;51.186;0.276;2023-07-31T02:50:39;4.38;;;1.88;;
64738;SDS011;51175;51.186;0.276;2023-07-31T02:51:09;3.90;;;1.80;;
64738;SDS011;51175;51.186;0.276;2023-07-31T02:51:39;5.15;;;1.77;;
64738;SDS011;51175;51.186;0.276;2023-07-31T02:52:10;4.43;;;1.50;;
64738;SDS011;51175;51.186;0.276;2023-07-31T02:52:40;3.67;;;1.40;;
64738;SDS011;51175;51.186;0.276;2023-07-31T02:53:10;4.03;;;1.80;;
64738;SDS011;51175;51.186;0.276;2023-07-31T02:53:41;2.85;;;1.30;;
64738;SDS011;51175;51.186;0.276;2023-07-31T02:54:11;2.72;;;1.98;;
64738;SDS011;51175;51.186;0.276;2023-07-31T02:54:41;2.58;;;1.45;;
64738;SDS011;51175;51.186;0.276;2023-07-31T02:55:12;4.50;;;1.80;;
64738;SDS011;51175;51.186;0.276;2023-07-31T02:55:42;4.55;;;1.85;;
64738;SDS011;51175;51.186;0.276;2023-07-31T02:56:12;3.00;;;1.33;;
64738;SDS011;51175;51.186;0.276;2023-07-31T02:56:43;4.65;;;1.75;;
64738;SDS011;51175;51.186;0.276;2023-07-31T02:57:13;5.13;;;2.15;;
64738;SDS011;51175;51.186;0.276;2023-07-31T02:57:44;3.15;;;1.30;;
64738;SDS011;51175;51.186;0.276;2023-07-31T02:58:14;2.50;;;1.35;;
64738;SDS011;51175;51.186;0.276;2023-07-31T02:58:44;3.58;;;1.20;;
64738;SDS011;51175;51.186;0.276;2023-07-31T02:59:15;2.90;;;1.38;;
64738;SDS011;51175;51.186;0.276;2023-07-31T02:59:45;2.40;;;1.35;;
64738;SDS011;51175;51.186;0.276;2023-07-31T03:00:15;3.70;;;1.45;;
64738;SDS011;51175;51.186;0.276;2023-07-31T03:00:46;2.20;;;1.17;;
64738;SDS011;51175;51.186;0.276;2023-07-31T03:01:16;4.10;;;1.45;;
64738;SDS011;51175;51.186;0.276;2023-07-31T03:01:46;4.13;;;1.45;;
64738;SDS011;51175;51.186;0.276;2023-07-31T03:02:17;2.78;;;1.40;;
64738;SDS011;51175;51.186;0.276;2023-07-31T03:02:47;3.72;;;1.50;;
64738;SDS011;51175;51.186;0.276;2023-07-31T03:03:17;3.58;;;1.42;;
64738;SDS011;51175;51.186;0.276;2023-07-31T03:03:48;4.45;;;1.73;;
64738;SDS011;51175;51.186;0.276;2023-07-31T03:04:18;2.50;;;1.17;;
64738;SDS011;51175;51.186;0.276;2023-07-31T03:04:49;3.35;;;1.67;;
64738;SDS011;51175;51.186;0.276;2023-07-31T03:05:19;3.40;;;1.08;;
64738;SDS011;51175;51.186;0.276;2023-07-31T03:05:49;3.83;;;1.80;;
64738;SDS011;51175;51.186;0.276;2023-07-31T03:06:20;5.53;;;1.58;;
64738;SDS011;51175;51.186;0.276;2023-07-31T03:06:50;2.78;;;1.38;;
64738;SDS011;51175;51.186;0.276;2023-07-31T03:07:20;2.90;;;1.40;;
64738;SDS011;51175;51.186;0.276;2023-07-31T03:07:51;3.15;;;1.60;;
64738;SDS011;51175;51.186;0.276;2023-07-31T03:08:21;3.15;;;1.25;;
64738;SDS011;51175;51.186;0.276;2023-07-31T03:08:52;3.92;;;1.35;;
64738;SDS011;51175;51.186;0.276;2023-07-31T03:09:22;2.50;;;1.55;;
64738;SDS011;51175;51.186;0.276;2023-07-31T03:09:52;3.80;;;2.03;;
64738;SDS011;51175;51.186;0.276;2023-07-31T03:10:22;2.92;;;1.30;;
64738;SDS011;51175;51.186;0.276;2023-07-31T03:10:53;2.55;;;1.42;;
64738;SDS011;51175;51.186;0.276;2023-07-31T03:11:23;3.78;;;1.88;;
64738;SDS011;51175;51.186;0.276;2023-07-31T03:11:54;1.63;;;0.82;;
64738;SDS011;51175;51.186;0.276;2023-07-31T03:12:24;2.30;;;1.50;;
64738;SDS011;51175;51.186;0.276;2023-07-31T03:12:54;4.57;;;1.52;;
64738;SDS011;51175;51.186;0.276;2023-07-31T03:13:25;3.92;;;1.55;;